Time;durP1;ratioP1;P1;durP2;ratioP2;P2;SDS_P1;SDS_P2;PMS_P1;PMS_P2;Temp;Humidity;BMP_temperature;BMP_pressure;BME280_temperature;BME280_humidity;BME280_pressure;Samples;Min_cycle;Max_cycle;Signal;HPM_P1;HPM_P2
2024/01/06 00:01:54;;;;;;;0.10;0.10;;;9.00;99.90;;;;;;5034572;28;20401;-73
2024/01/06 00:04:20;;;;;;;0.63;0.25;;;9.00;99.90;;;;;;5054006;28;20036;-73
2024/01/06 00:06:46;;;;;;;0.30;0.30;;;9.10;99.90;;;;;;5053314;28;20033;-73
2024/01/06 00:09:12;;;;;;;0.00;0.00;;;9.00;99.90;;;;;;5053828;28;20070;-73
2024/01/06 00:11:38;;;;;;;0.10;0.10;;;9.00;99.90;;;;;;5053670;28;20112;-73
2024/01/06 00:14:03;;;;;;;0.10;0.10;;;8.90;99.90;;;;;;5053524;28;20063;-73
2024/01/06 00:16:29;;;;;;;0.08;0.08;;;8.90;99.90;;;;;;5053155;28;20033;-74
2024/01/06 00:18:55;;;;;;;0.10;0.10;;;9.00;99.90;;;;;;5053239;28;20033;-73
2024/01/06 00:21:22;;;;;;;0.10;0.10;;;8.90;99.90;;;;;;5053246;28;20021;-73
2024/01/06 00:23:48;;;;;;;0.25;0.25;;;9.00;99.90;;;;;;5035783;28;20070;-73
2024/01/06 00:26:14;;;;;;;0.10;0.10;;;9.00;99.90;;;;;;5053167;28;20503;-73
2024/01/06 00:28:39;;;;;;;0.10;0.10;;;9.10;99.90;;;;;;5053236;28;20024;-73
2024/01/06 00:31:06;;;;;;;0.70;0.50;;;9.10;99.90;;;;;;5053230;28;20032;-74
2024/01/06 00:33:32;;;;;;;0.10;0.10;;;9.10;99.90;;;;;;5052631;28;20111;-73
2024/01/06 00:35:57;;;;;;;0.10;0.10;;;9.20;99.90;;;;;;5053159;28;20509;-74
2024/01/06 00:38:24;;;;;;;2.15;2.03;;;9.10;99.90;;;;;;5053062;28;20025;-74
2024/01/06 00:40:50;;;;;;;0.40;0.30;;;9.10;99.90;;;;;;5053109;28;20033;-73
2024/01/06 00:43:16;;;;;;;0.00;0.00;;;9.10;99.90;;;;;;5052826;28;20043;-73
2024/01/06 00:45:41;;;;;;;0.10;0.10;;;9.10;99.90;;;;;;5053265;28;20029;-73
2024/01/06 00:48:07;;;;;;;0.10;0.10;;;9.20;99.90;;;;;;5052400;28;20025;-73
2024/01/06 00:50:33;;;;;;;0.00;0.00;;;9.30;99.90;;;;;;5052858;28;20028;-74
2024/01/06 00:52:59;;;;;;;0.10;0.10;;;9.40;99.90;;;;;;5052662;28;20071;-74
2024/01/06 00:55:26;;;;;;;0.10;0.10;;;9.50;99.90;;;;;;5051683;28;20028;-73
2024/01/06 00:57:52;;;;;;;0.00;0.00;;;9.50;99.90;;;;;;5034972;28;20435;-73
2024/01/06 01:00:21;;;;;;;0.00;0.00;;;9.70;99.90;;;;;;5052953;28;20025;-73
2024/01/06 01:02:46;;;;;;;0.10;0.10;;;9.70;99.90;;;;;;5052257;28;20041;-73
2024/01/06 01:05:12;;;;;;;0.10;0.10;;;9.90;99.90;;;;;;5051506;28;20017;-73
2024/01/06 01:07:38;;;;;;;0.00;0.00;;;9.80;99.90;;;;;;5052809;28;20488;-73
2024/01/06 01:10:05;;;;;;;0.30;0.30;;;9.60;99.90;;;;;;5052524;28;20017;-73
2024/01/06 01:12:31;;;;;;;0.95;0.75;;;9.60;99.90;;;;;;5052064;28;20031;-73
2024/01/06 01:14:57;;;;;;;0.00;0.00;;;9.50;99.90;;;;;;5034875;28;20024;-73
2024/01/06 01:17:23;;;;;;;0.10;0.10;;;9.50;99.90;;;;;;5034145;28;20029;-73
2024/01/06 01:19:49;;;;;;;0.00;0.00;;;9.30;99.90;;;;;;5052410;28;20021;-73
2024/01/06 01:22:14;;;;;;;0.10;0.10;;;9.30;99.90;;;;;;5034092;28;20163;-74
2024/01/06 01:24:42;;;;;;;0.38;0.38;;;9.40;99.90;;;;;;5034597;28;20111;-73
2024/01/06 01:27:08;;;;;;;0.10;0.10;;;9.50;99.90;;;;;;5052492;28;20133;-73
2024/01/06 01:29:34;;;;;;;0.13;0.13;;;9.40;99.90;;;;;;5052322;28;20492;-73
2024/01/06 01:31:59;;;;;;;0.10;0.10;;;9.30;99.90;;;;;;5034662;28;20013;-73
2024/01/06 01:34:26;;;;;;;0.10;0.10;;;9.20;99.90;;;;;;5052228;28;20033;-73
2024/01/06 01:36:52;;;;;;;0.10;0.10;;;9.30;99.90;;;;;;5052348;28;20078;-73
2024/01/06 01:39:18;;;;;;;2.53;1.35;;;9.30;99.90;;;;;;5052446;28;20025;-73
2024/01/06 01:41:43;;;;;;;9.05;0.57;;;9.30;99.90;;;;;;5034649;28;20413;-73
2024/01/06 01:44:09;;;;;;;0.08;0.08;;;9.30;99.90;;;;;;5034544;28;20511;-73
2024/01/06 01:46:35;;;;;;;0.08;0.08;;;9.10;99.90;;;;;;5052236;28;20021;-73
2024/01/06 01:49:03;;;;;;;0.68;0.68;;;9.20;99.90;;;;;;5034253;28;20029;-73
2024/01/06 01:51:31;;;;;;;0.90;0.90;;;9.10;99.90;;;;;;5052215;28;20028;-73
2024/01/06 01:54:02;;;;;;;0.10;0.10;;;9.20;99.90;;;;;;5052321;28;20022;-73
2024/01/06 01:56:33;;;;;;;2.95;0.52;;;9.40;99.90;;;;;;5052157;28;20044;-73
2024/01/06 01:59:04;;;;;;;0.30;0.30;;;9.30;99.90;;;;;;5051949;28;20025;-72
2024/01/06 02:01:30;;;;;;;0.40;0.40;;;9.30;99.90;;;;;;5033689;28;20025;-73
2024/01/06 02:03:57;;;;;;;0.15;0.15;;;9.40;99.90;;;;;;5017950;28;20397;-73
2024/01/06 02:06:23;;;;;;;0.10;0.10;;;9.30;99.90;;;;;;5052223;28;20052;-73
2024/01/06 02:08:49;;;;;;;0.10;0.10;;;9.20;99.90;;;;;;5051826;28;20466;-73
2024/01/06 02:11:14;;;;;;;0.10;0.10;;;9.20;99.90;;;;;;5052180;28;20017;-73
2024/01/06 02:13:40;;;;;;;0.25;0.25;;;9.20;99.90;;;;;;5051799;28;20530;-73
2024/01/06 02:16:07;;;;;;;2.17;0.25;;;9.20;99.90;;;;;;5051669;28;20116;-73
2024/01/06 02:18:33;;;;;;;1.35;0.57;;;9.20;99.90;;;;;;5052012;28;20045;-73
2024/01/06 02:21:01;;;;;;;0.20;0.20;;;9.30;99.90;;;;;;5034120;28;20096;-73
2024/01/06 02:23:28;;;;;;;1.05;0.65;;;9.20;99.90;;;;;;5052111;28;20111;-73
2024/01/06 02:25:54;;;;;;;0.10;0.10;;;9.10;99.90;;;;;;5055490;28;20044;-73
2024/01/06 02:28:23;;;;;;;0.45;0.40;;;9.10;99.90;;;;;;5055594;28;20111;-73
2024/01/06 02:30:50;;;;;;;0.10;0.10;;;9.10;99.90;;;;;;5055107;28;20021;-73
2024/01/06 02:33:15;;;;;;;0.03;0.03;;;9.10;99.90;;;;;;5055941;28;20040;-74
2024/01/06 02:35:41;;;;;;;0.10;0.10;;;9.00;99.90;;;;;;5055410;28;20504;-74
2024/01/06 02:38:08;;;;;;;0.10;0.10;;;9.00;99.90;;;;;;5055377;28;20024;-74
2024/01/06 02:40:34;;;;;;;0.10;0.10;;;8.90;99.90;;;;;;5055245;28;20535;-74
2024/01/06 02:43:00;;;;;;;0.00;0.00;;;8.80;99.90;;;;;;5055075;28;20036;-74
2024/01/06 02:45:25;;;;;;;0.10;0.10;;;8.80;99.90;;;;;;5054870;28;20032;-74
2024/01/06 02:47:52;;;;;;;0.10;0.10;;;8.80;99.90;;;;;;5055198;28;20029;-73
2024/01/06 02:50:18;;;;;;;0.00;0.00;;;8.90;99.90;;;;;;5037304;28;20021;-74
2024/01/06 02:52:45;;;;;;;0.00;0.00;;;9.00;99.90;;;;;;5055097;28;20165;-73
2024/01/06 02:55:11;;;;;;;0.00;0.00;;;8.90;99.90;;;;;;5054904;28;20032;-73
2024/01/06 02:57:38;;;;;;;0.00;0.00;;;9.00;99.90;;;;;;5037036;28;20029;-73
2024/01/06 03:00:06;;;;;;;0.00;0.00;;;8.90;99.90;;;;;;5036568;28;20028;-73
2024/01/06 03:02:33;;;;;;;0.00;0.00;;;8.80;99.90;;;;;;5054818;28;20021;-73
2024/01/06 03:04:59;;;;;;;0.10;0.10;;;8.80;99.90;;;;;;5054611;28;20060;-73
2024/01/06 03:07:25;;;;;;;0.10;0.10;;;8.90;99.90;;;;;;5055046;28;20551;-73
2024/01/06 03:09:50;;;;;;;0.10;0.10;;;8.80;99.90;;;;;;5054350;28;20029;-73
2024/01/06 03:12:16;;;;;;;0.00;0.00;;;8.90;99.90;;;;;;5054752;28;20108;-73
2024/01/06 03:14:42;;;;;;;0.00;0.00;;;8.70;99.90;;;;;;5054134;28;20021;-73
2024/01/06 03:17:10;;;;;;;0.00;0.00;;;8.80;99.90;;;;;;5054390;28;20079;-73
2024/01/06 03:19:36;;;;;;;0.00;0.00;;;8.80;99.90;;;;;;5054750;28;20086;-73
2024/01/06 03:22:02;;;;;;;0.10;0.10;;;8.90;99.90;;;;;;5054257;28;20029;-73
2024/01/06 03:24:31;;;;;;;0.00;0.00;;;8.90;99.90;;;;;;5036726;28;20381;-73
2024/01/06 03:26:58;;;;;;;0.38;0.28;;;8.90;99.90;;;;;;5036254;28;20025;-73
2024/01/06 03:29:24;;;;;;;1.45;0.45;;;8.90;99.90;;;;;;5054409;28;20028;-73
2024/01/06 03:31:49;;;;;;;0.10;0.10;;;8.80;99.90;;;;;;5054087;28;20075;-73
2024/01/06 03:34:15;;;;;;;1.90;1.80;;;8.80;99.90;;;;;;5054097;28;20047;-73
2024/01/06 03:36:41;;;;;;;0.00;0.00;;;8.60;99.90;;;;;;5053942;28;20386;-73
2024/01/06 03:39:07;;;;;;;0.43;0.30;;;8.60;99.90;;;;;;5054249;28;20017;-73
2024/01/06 03:41:34;;;;;;;0.95;0.95;;;8.40;99.90;;;;;;5053558;28;20025;-73
2024/01/06 03:44:00;;;;;;;0.10;0.10;;;8.40;99.90;;;;;;5054011;28;20059;-73
2024/01/06 03:46:26;;;;;;;0.00;0.00;;;8.40;99.90;;;;;;5053799;28;20029;-73
2024/01/06 03:48:52;;;;;;;0.10;0.10;;;8.50;99.90;;;;;;5054369;28;20044;-73
2024/01/06 03:51:17;;;;;;;0.10;0.10;;;8.60;99.90;;;;;;5053803;28;20107;-73
2024/01/06 03:53:43;;;;;;;0.10;0.10;;;8.50;99.90;;;;;;5054211;28;20051;-73
2024/01/06 03:56:09;;;;;;;1.10;0.57;;;8.60;99.90;;;;;;5051296;28;20024;-73
2024/01/06 03:58:35;;;;;;;0.00;0.00;;;8.50;99.90;;;;;;5053726;28;20454;-73
2024/01/06 04:01:05;;;;;;;0.20;0.20;;;8.50;99.90;;;;;;5053506;28;20037;-73
2024/01/06 04:03:30;;;;;;;0.08;0.08;;;8.50;99.90;;;;;;5053529;28;20032;-72
2024/01/06 04:06:00;;;;;;;0.10;0.10;;;8.30;99.90;;;;;;5053731;28;20025;-73
2024/01/06 04:08:25;;;;;;;0.30;0.30;;;8.40;99.90;;;;;;5053822;28;20025;-73
2024/01/06 04:10:51;;;;;;;0.17;0.17;;;8.40;99.90;;;;;;5053288;28;20453;-73
2024/01/06 04:13:18;;;;;;;0.05;0.05;;;8.40;99.90;;;;;;5053715;28;20025;-72
2024/01/06 04:15:44;;;;;;;0.10;0.10;;;8.20;99.90;;;;;;5053280;28;20029;-73
2024/01/06 04:18:09;;;;;;;0.50;0.50;;;8.30;99.90;;;;;;5053448;28;20033;-72
2024/01/06 04:20:36;;;;;;;0.35;0.35;;;8.30;99.90;;;;;;5053569;28;20033;-72
2024/01/06 04:23:02;;;;;;;0.30;0.30;;;8.20;99.90;;;;;;5053247;28;20082;-72
2024/01/06 04:25:28;;;;;;;2.30;1.08;;;8.10;99.90;;;;;;5053183;28;20355;-73
2024/01/06 04:27:54;;;;;;;0.15;0.15;;;8.10;99.90;;;;;;5035101;28;20025;-73
2024/01/06 04:30:20;;;;;;;0.30;0.30;;;8.10;99.90;;;;;;5035467;28;20067;-72
2024/01/06 04:32:48;;;;;;;0.00;0.00;;;8.20;99.90;;;;;;5035367;28;20032;-72
2024/01/06 04:35:14;;;;;;;0.50;0.50;;;8.30;99.90;;;;;;5035420;28;20021;-72
2024/01/06 04:37:40;;;;;;;0.00;0.00;;;8.30;99.90;;;;;;5052913;28;20036;-72
2024/01/06 04:40:07;;;;;;;1.67;0.40;;;8.40;99.90;;;;;;5052859;28;20017;-72
2024/01/06 04:42:33;;;;;;;0.00;0.00;;;8.40;99.90;;;;;;5051949;28;20103;-73
2024/01/06 04:44:59;;;;;;;0.00;0.00;;;8.20;99.90;;;;;;5053070;28;20428;-72
2024/01/06 04:47:26;;;;;;;6.93;0.32;;;8.30;99.90;;;;;;5034450;28;20405;-72
2024/01/06 04:49:52;;;;;;;0.10;0.10;;;8.40;99.90;;;;;;5052835;28;20495;-73
2024/01/06 04:52:18;;;;;;;0.32;0.32;;;8.20;99.90;;;;;;5052989;28;20033;-72
2024/01/06 04:54:44;;;;;;;0.00;0.00;;;8.20;99.90;;;;;;5035090;28;20028;-72
2024/01/06 04:57:10;;;;;;;0.28;0.28;;;8.20;99.90;;;;;;5051728;28;20114;-73
2024/01/06 04:59:36;;;;;;;0.00;0.00;;;8.20;99.90;;;;;;5044213;28;20411;-73
2024/01/06 05:02:02;;;;;;;0.00;0.00;;;8.20;99.90;;;;;;5052021;28;20377;-73
2024/01/06 05:04:30;;;;;;;0.05;0.05;;;8.30;99.90;;;;;;5052435;28;20025;-73
2024/01/06 05:06:56;;;;;;;0.73;0.73;;;8.30;99.90;;;;;;5052656;28;20189;-74
2024/01/06 05:09:22;;;;;;;0.00;0.00;;;8.30;99.90;;;;;;5052714;28;20385;-74
2024/01/06 05:11:47;;;;;;;0.00;0.00;;;8.30;99.90;;;;;;5052950;28;20033;-73
2024/01/06 05:14:13;;;;;;;0.00;0.00;;;8.40;99.90;;;;;;5052368;28;20021;-73
2024/01/06 05:16:39;;;;;;;0.00;0.00;;;8.30;99.90;;;;;;5052370;28;20395;-73
2024/01/06 05:19:05;;;;;;;0.00;0.00;;;8.30;99.90;;;;;;5052407;28;20409;-73
2024/01/06 05:21:32;;;;;;;0.00;0.00;;;8.20;99.90;;;;;;5052682;28;20025;-73
2024/01/06 05:23:59;;;;;;;0.10;0.10;;;8.20;99.90;;;;;;5052059;28;20021;-73
2024/01/06 05:26:25;;;;;;;0.00;0.00;;;8.00;99.90;;;;;;5052620;28;20013;-73
2024/01/06 05:28:52;;;;;;;0.20;0.20;;;7.90;99.90;;;;;;5052528;28;20025;-73
2024/01/06 05:31:17;;;;;;;0.30;0.30;;;7.90;99.90;;;;;;5052406;28;20013;-73
2024/01/06 05:33:43;;;;;;;1.52;0.73;;;7.80;99.90;;;;;;5034563;28;20053;-73
2024/01/06 05:36:09;;;;;;;0.05;0.05;;;7.80;99.90;;;;;;5052344;28;20013;-73
2024/01/06 05:38:36;;;;;;;0.00;0.00;;;7.80;99.90;;;;;;5052108;28;20029;-73
2024/01/06 05:41:02;;;;;;;0.00;0.00;;;7.70;99.90;;;;;;5052439;28;20025;-73
2024/01/06 05:43:28;;;;;;;0.00;0.00;;;7.80;99.90;;;;;;5052367;28;20048;-73
2024/01/06 05:45:57;;;;;;;0.00;0.00;;;7.80;99.90;;;;;;5034472;28;20033;-73
2024/01/06 05:48:23;;;;;;;0.00;0.00;;;7.80;99.90;;;;;;5052447;28;20033;-73
2024/01/06 05:50:49;;;;;;;0.40;0.40;;;7.80;99.90;;;;;;5052463;28;20040;-73
2024/01/06 05:53:18;;;;;;;0.10;0.10;;;7.80;99.90;;;;;;5033999;28;20043;-73
2024/01/06 05:55:44;;;;;;;0.47;0.47;;;7.60;99.90;;;;;;5052304;28;20029;-73
2024/01/06 05:58:10;;;;;;;3.85;1.75;;;7.50;99.90;;;;;;5053280;28;20064;-73
2024/01/06 06:00:35;;;;;;;0.08;0.08;;;7.40;99.90;;;;;;5055871;28;20110;-73
2024/01/06 06:03:02;;;;;;;0.10;0.10;;;7.40;99.90;;;;;;5055962;28;20029;-73
2024/01/06 06:05:28;;;;;;;3.95;1.00;;;7.40;99.90;;;;;;5037955;28;20087;-73
2024/01/06 06:07:54;;;;;;;0.00;0.00;;;7.40;99.90;;;;;;5055682;28;20457;-73
2024/01/06 06:10:20;;;;;;;0.00;0.00;;;7.50;99.90;;;;;;5037648;28;20098;-73
2024/01/06 06:12:46;;;;;;;0.63;0.63;;;7.70;99.90;;;;;;5055976;28;20045;-73
2024/01/06 06:15:11;;;;;;;1.17;0.20;;;7.60;99.90;;;;;;5055639;28;20114;-73
2024/01/06 06:17:39;;;;;;;0.10;0.10;;;7.50;99.90;;;;;;5055586;28;20103;-73
2024/01/06 06:20:09;;;;;;;0.32;0.32;;;7.50;99.90;;;;;;5055844;28;20310;-73
2024/01/06 06:22:34;;;;;;;1.75;0.45;;;7.50;99.90;;;;;;5037584;28;20025;-73
2024/01/06 06:25:00;;;;;;;0.30;0.30;;;7.60;99.90;;;;;;5055783;28;20036;-73
2024/01/06 06:27:27;;;;;;;0.00;0.00;;;7.60;99.90;;;;;;5054205;28;20032;-73
2024/01/06 06:29:54;;;;;;;0.00;0.00;;;7.70;99.90;;;;;;5037587;28;20083;-73
2024/01/06 06:32:24;;;;;;;0.10;0.10;;;7.80;99.90;;;;;;5055549;28;20017;-73
2024/01/06 06:34:50;;;;;;;1.92;1.55;;;7.90;99.90;;;;;;5055475;28;20040;-73
2024/01/06 06:37:16;;;;;;;0.00;0.00;;;7.80;99.90;;;;;;5053911;28;20021;-73
2024/01/06 06:39:44;;;;;;;0.70;0.25;;;7.60;99.90;;;;;;5055391;28;20029;-73
2024/01/06 06:42:10;;;;;;;0.52;0.52;;;7.50;99.90;;;;;;5037412;28;20041;-73
2024/01/06 06:44:36;;;;;;;0.00;0.00;;;7.40;99.90;;;;;;5055067;28;20025;-73
2024/01/06 06:47:02;;;;;;;0.30;0.30;;;7.50;99.90;;;;;;5055350;28;20033;-73
2024/01/06 06:49:28;;;;;;;0.20;0.20;;;7.30;99.90;;;;;;5037187;28;20105;-73
2024/01/06 06:51:55;;;;;;;0.00;0.00;;;7.40;99.90;;;;;;5054726;28;20029;-73
2024/01/06 06:54:21;;;;;;;0.00;0.00;;;7.40;99.90;;;;;;5055304;28;20025;-73
2024/01/06 06:56:47;;;;;;;0.10;0.10;;;7.40;99.90;;;;;;5054778;28;20021;-73
2024/01/06 06:59:16;;;;;;;0.00;0.00;;;7.40;99.90;;;;;;5054750;28;20036;-72
2024/01/06 07:01:42;;;;;;;0.00;0.00;;;7.30;99.90;;;;;;5037081;28;20135;-73
2024/01/06 07:04:08;;;;;;;4.90;2.90;;;7.40;99.90;;;;;;5054900;28;20033;-73
2024/01/06 07:06:34;;;;;;;0.00;0.00;;;7.60;99.90;;;;;;5054528;28;20091;-73
2024/01/06 07:09:00;;;;;;;0.15;0.15;;;7.60;99.90;;;;;;5054652;28;20078;-73
2024/01/06 07:11:25;;;;;;;0.00;0.00;;;7.50;99.90;;;;;;5054209;28;20036;-73
2024/01/06 07:13:51;;;;;;;0.15;0.15;;;7.60;99.90;;;;;;5054877;28;20146;-73
2024/01/06 07:16:18;;;;;;;0.00;0.00;;;7.60;99.90;;;;;;5054394;28;20474;-73
2024/01/06 07:18:44;;;;;;;0.10;0.10;;;7.70;99.90;;;;;;5036588;28;20044;-73
2024/01/06 07:21:11;;;;;;;0.00;0.00;;;7.70;99.90;;;;;;5054380;28;20032;-73
2024/01/06 07:23:40;;;;;;;0.60;0.30;;;7.50;99.90;;;;;;5054651;28;20029;-73
2024/01/06 07:26:08;;;;;;;0.10;0.10;;;7.50;99.90;;;;;;5036570;28;20049;-73
2024/01/06 07:28:34;;;;;;;0.17;0.17;;;7.60;99.90;;;;;;5054382;28;20482;-73
2024/01/06 07:31:00;;;;;;;2.40;0.55;;;7.50;99.90;;;;;;5054255;28;20143;-73
2024/01/06 07:33:26;;;;;;;0.20;0.20;;;7.50;99.90;;;;;;5054289;28;20032;-73
2024/01/06 07:35:52;;;;;;;0.00;0.00;;;7.50;99.90;;;;;;5036326;28;20025;-73
2024/01/06 07:38:19;;;;;;;0.00;0.00;;;7.50;99.90;;;;;;5054421;28;20108;-73
2024/01/06 07:40:45;;;;;;;0.68;0.52;;;7.40;99.90;;;;;;5054340;28;20025;-73
2024/01/06 07:43:10;;;;;;;0.32;0.32;;;7.40;99.90;;;;;;5054178;28;20067;-73
2024/01/06 07:45:38;;;;;;;0.00;0.00;;;7.40;99.90;;;;;;5054432;28;20025;-73
2024/01/06 07:48:04;;;;;;;0.00;0.00;;;7.40;99.90;;;;;;5053658;28;20041;-73
2024/01/06 07:50:32;;;;;;;0.55;0.25;;;7.40;99.90;;;;;;5053888;28;20037;-73
2024/01/06 07:52:59;;;;;;;0.10;0.10;;;7.30;99.90;;;;;;5054001;28;20029;-73
2024/01/06 07:55:28;;;;;;;0.10;0.10;;;7.30;99.90;;;;;;5053835;28;20021;-73
2024/01/06 07:57:54;;;;;;;0.32;0.32;;;7.30;99.90;;;;;;5036121;28;20040;-73
2024/01/06 08:00:20;;;;;;;0.10;0.10;;;7.30;99.90;;;;;;5053824;28;20032;-73
2024/01/06 08:02:46;;;;;;;0.00;0.00;;;7.30;99.90;;;;;;5052053;28;20037;-73
2024/01/06 08:05:12;;;;;;;1.23;0.80;;;7.30;99.90;;;;;;5053587;28;20025;-73
2024/01/06 08:07:39;;;;;;;0.60;0.60;;;7.30;99.90;;;;;;5053555;28;20099;-73
2024/01/06 08:10:06;;;;;;;0.10;0.10;;;7.30;99.90;;;;;;5036044;28;20421;-73
2024/01/06 08:12:32;;;;;;;0.10;0.10;;;7.30;99.90;;;;;;5035644;28;20490;-74
2024/01/06 08:14:58;;;;;;;0.47;0.47;;;7.40;99.90;;;;;;5053321;28;20029;-73
2024/01/06 08:17:23;;;;;;;3.03;0.52;;;7.30;99.90;;;;;;5052911;28;20036;-73
2024/01/06 08:19:53;;;;;;;0.10;0.10;;;7.40;99.90;;;;;;5053436;28;20025;-73
2024/01/06 08:22:20;;;;;;;0.17;0.17;;;7.30;99.90;;;;;;5052189;28;20037;-73
2024/01/06 08:24:45;;;;;;;0.10;0.05;;;7.30;99.90;;;;;;5053523;28;20430;-73
2024/01/06 08:27:11;;;;;;;0.20;0.20;;;7.30;99.90;;;;;;5053115;28;20143;-73
2024/01/06 08:29:37;;;;;;;0.63;0.60;;;7.30;99.90;;;;;;5053005;28;20027;-73
2024/01/06 08:32:03;;;;;;;0.10;0.10;;;7.10;99.90;;;;;;5052971;28;20048;-73
2024/01/06 08:34:29;;;;;;;0.10;0.10;;;7.00;99.90;;;;;;5052883;28;20032;-73
2024/01/06 08:36:54;;;;;;;0.10;0.10;;;6.80;99.90;;;;;;5052686;28;20090;-73
2024/01/06 08:39:22;;;;;;;0.17;0.17;;;6.80;99.90;;;;;;5052852;28;20037;-73
2024/01/06 08:41:48;;;;;;;2.55;2.33;;;6.90;99.90;;;;;;5052825;28;20024;-73
2024/01/06 08:44:14;;;;;;;0.10;0.10;;;6.90;99.90;;;;;;5052809;28;20032;-73
2024/01/06 08:46:40;;;;;;;0.32;0.32;;;6.90;99.90;;;;;;5034677;28;20028;-72
2024/01/06 08:49:06;;;;;;;0.10;0.10;;;6.90;99.90;;;;;;5035051;28;20029;-73
2024/01/06 08:51:32;;;;;;;0.75;0.75;;;6.90;99.90;;;;;;5052818;28;20021;-73
2024/01/06 08:53:57;;;;;;;0.00;0.00;;;7.00;99.90;;;;;;5052769;28;20036;-73
2024/01/06 08:56:23;;;;;;;0.55;0.40;;;7.00;99.90;;;;;;5035032;28;20025;-73
2024/01/06 08:58:49;;;;;;;0.00;0.00;;;7.00;99.90;;;;;;5051480;28;20075;-73
2024/01/06 09:01:15;;;;;;;0.00;0.00;;;7.00;99.90;;;;;;5052600;28;20138;-73
2024/01/06 09:03:40;;;;;;;0.35;0.35;;;7.20;99.90;;;;;;5052468;28;20036;-74
2024/01/06 09:06:06;;;;;;;0.00;0.00;;;7.30;99.90;;;;;;5052667;28;20028;-73
2024/01/06 09:08:32;;;;;;;2.75;0.45;;;7.30;99.90;;;;;;5034459;28;20033;-73
2024/01/06 09:10:58;;;;;;;0.98;0.88;;;7.30;99.90;;;;;;5053059;28;20014;-73
2024/01/06 09:13:24;;;;;;;0.20;0.20;;;7.10;99.90;;;;;;5034897;28;20055;-74
2024/01/06 09:15:51;;;;;;;0.00;0.00;;;7.20;99.90;;;;;;5051997;28;20405;-74
2024/01/06 09:18:17;;;;;;;0.32;0.32;;;7.40;99.90;;;;;;5052529;28;20444;-73
2024/01/06 09:20:43;;;;;;;0.30;0.30;;;7.30;99.90;;;;;;5052458;28;20107;-73
2024/01/06 09:23:10;;;;;;;0.50;0.30;;;7.10;99.90;;;;;;5052438;28;20150;-73
2024/01/06 09:25:36;;;;;;;1.17;0.43;;;6.90;99.90;;;;;;5052452;28;20025;-73
2024/01/06 09:28:02;;;;;;;0.75;0.57;;;7.10;99.90;;;;;;5052421;28;20481;-73
2024/01/06 09:30:28;;;;;;;0.65;0.65;;;7.10;99.90;;;;;;5052447;28;20355;-72
2024/01/06 09:32:54;;;;;;;0.00;0.00;;;7.10;99.90;;;;;;5053298;28;20036;-73
2024/01/06 09:35:20;;;;;;;0.17;0.17;;;7.10;99.90;;;;;;5056527;28;20086;-73
2024/01/06 09:37:46;;;;;;;0.60;0.57;;;7.10;99.90;;;;;;5056463;28;20064;-73
2024/01/06 09:40:13;;;;;;;0.28;0.28;;;6.90;99.90;;;;;;5038694;28;20056;-72
2024/01/06 09:42:40;;;;;;;0.22;0.22;;;6.90;99.90;;;;;;5056207;28;20021;-72
2024/01/06 09:45:06;;;;;;;0.20;0.20;;;6.90;99.90;;;;;;5056193;28;20035;-73
2024/01/06 09:47:35;;;;;;;0.10;0.10;;;6.80;99.90;;;;;;5038694;28;20494;-74
2024/01/06 09:50:04;;;;;;;0.00;0.00;;;6.80;99.90;;;;;;5056237;28;20021;-73
2024/01/06 09:52:32;;;;;;;0.55;0.35;;;6.70;99.90;;;;;;5056377;28;20055;-73
2024/01/06 09:55:02;;;;;;;0.55;0.45;;;6.70;99.90;;;;;;5055943;28;20415;-73
2024/01/06 09:57:27;;;;;;;0.00;0.00;;;6.60;99.90;;;;;;5056376;28;20048;-73
2024/01/06 09:59:55;;;;;;;0.10;0.10;;;6.70;99.90;;;;;;5054320;28;20482;-73
2024/01/06 10:02:22;;;;;;;0.40;0.35;;;6.70;99.90;;;;;;5056009;28;20029;-73
2024/01/06 10:04:48;;;;;;;0.00;0.00;;;6.50;99.90;;;;;;5038102;28;20025;-73
2024/01/06 10:07:14;;;;;;;0.00;0.00;;;6.50;99.90;;;;;;5055799;28;20377;-74
2024/01/06 10:09:43;;;;;;;0.90;0.57;;;6.60;99.90;;;;;;5038074;28;20470;-73
2024/01/06 10:12:09;;;;;;;0.85;0.65;;;6.70;99.90;;;;;;5037947;28;20029;-73
2024/01/06 10:14:36;;;;;;;4.65;3.30;;;6.70;99.90;;;;;;5055958;28;20021;-72
2024/01/06 10:17:05;;;;;;;0.17;0.17;;;6.50;99.90;;;;;;5055348;28;20033;-73
2024/01/06 10:19:31;;;;;;;0.00;0.00;;;6.50;99.90;;;;;;5055755;28;20381;-72
2024/01/06 10:22:00;;;;;;;0.47;0.47;;;6.60;99.90;;;;;;5055588;28;20040;-73
2024/01/06 10:24:26;;;;;;;0.57;0.28;;;6.60;99.90;;;;;;5055484;28;20029;-73
2024/01/06 10:26:52;;;;;;;0.00;0.00;;;6.60;99.90;;;;;;5055616;28;20102;-73
2024/01/06 10:29:18;;;;;;;0.00;0.00;;;6.60;99.90;;;;;;5037101;28;20129;-73
2024/01/06 10:31:44;;;;;;;1.25;0.30;;;6.70;99.90;;;;;;5055599;28;20104;-73
2024/01/06 10:34:09;;;;;;;0.00;0.00;;;6.60;99.90;;;;;;5055524;28;20040;-73
2024/01/06 10:36:36;;;;;;;0.40;0.10;;;6.60;99.90;;;;;;5055402;28;20060;-73
2024/01/06 10:39:03;;;;;;;0.00;0.00;;;6.60;99.90;;;;;;5037451;28;20032;-73
2024/01/06 10:41:33;;;;;;;1.58;1.30;;;6.60;99.90;;;;;;5055256;28;20063;-73
2024/01/06 10:44:01;;;;;;;0.30;0.30;;;6.70;99.90;;;;;;5036459;28;20037;-73
2024/01/06 10:46:29;;;;;;;0.77;0.77;;;6.60;99.90;;;;;;5054883;28;20049;-73
2024/01/06 10:48:57;;;;;;;0.10;0.10;;;6.60;99.90;;;;;;5055303;28;20032;-73
2024/01/06 10:51:25;;;;;;;0.03;0.03;;;6.70;99.90;;;;;;5055118;28;20075;-73
2024/01/06 10:53:51;;;;;;;0.00;0.00;;;6.70;99.90;;;;;;5055340;28;20079;-73
2024/01/06 10:56:17;;;;;;;0.10;0.10;;;6.70;99.90;;;;;;5036969;28;20029;-73
2024/01/06 10:58:49;;;;;;;0.00;0.00;;;6.80;99.90;;;;;;5055049;28;20016;-73
2024/01/06 11:01:20;;;;;;;0.20;0.20;;;6.90;99.90;;;;;;5054771;28;20036;-73
2024/01/06 11:03:47;;;;;;;0.10;0.10;;;7.10;99.90;;;;;;5054933;28;20083;-72
2024/01/06 11:06:13;;;;;;;0.00;0.00;;;6.90;99.90;;;;;;5036879;28;20020;-72
2024/01/06 11:08:49;;;;;;;1.52;0.55;;;7.00;99.90;;;;;;5054884;28;20029;-73
2024/01/06 11:11:19;;;;;;;0.00;0.00;;;6.80;99.90;;;;;;5054197;28;20053;-72
2024/01/06 11:13:46;;;;;;;0.10;0.10;;;6.80;99.90;;;;;;5054756;28;20025;-73
2024/01/06 11:16:35;;;;;;;0.50;0.50;;;6.80;99.90;;;;;;5054392;28;20044;-73
2024/01/06 11:19:01;;;;;;;0.00;0.00;;;6.70;99.90;;;;;;5054399;28;20033;-72
2024/01/06 11:21:28;;;;;;;0.43;0.43;;;6.90;99.90;;;;;;5054641;28;20470;-73
2024/01/06 11:24:07;;;;;;;0.60;0.43;;;6.90;99.90;;;;;;5020210;28;20060;-72
2024/01/06 11:26:32;;;;;;;0.10;0.10;;;6.90;99.90;;;;;;5054186;28;20021;-72
2024/01/06 11:29:00;;;;;;;1.25;0.40;;;6.90;99.90;;;;;;5054404;28;20516;-73
2024/01/06 11:31:33;;;;;;;0.10;0.10;;;6.90;99.90;;;;;;5036354;28;20108;-72
2024/01/06 11:34:19;;;;;;;0.17;0.17;;;6.90;99.90;;;;;;5036260;28;20036;-73
2024/01/06 11:36:48;;;;;;;0.57;0.43;;;6.90;99.90;;;;;;5036692;28;20090;-73
2024/01/06 11:39:40;;;;;;;0.00;0.00;;;6.90;99.90;;;;;;5054121;28;20021;-73
2024/01/06 11:42:10;;;;;;;0.75;0.38;;;7.00;99.90;;;;;;5035942;28;20025;-72
2024/01/06 11:44:43;;;;;;;0.10;0.10;;;7.00;99.90;;;;;;5053837;28;20135;-72
2024/01/06 11:47:11;;;;;;;0.30;0.30;;;6.90;99.90;;;;;;5053925;28;20021;-72
2024/01/06 11:49:37;;;;;;;0.28;0.28;;;7.00;99.90;;;;;;5054043;28;20079;-72
2024/01/06 11:52:03;;;;;;;0.20;0.20;;;6.90;99.90;;;;;;5054027;28;20474;-72
2024/01/06 11:54:30;;;;;;;0.00;0.00;;;7.00;99.90;;;;;;5053650;28;20024;-72
2024/01/06 11:56:57;;;;;;;0.00;0.00;;;7.10;99.90;;;;;;5035933;28;20044;-73
2024/01/06 11:59:23;;;;;;;0.00;0.00;;;7.10;99.90;;;;;;5053841;28;20032;-72
2024/01/06 12:01:49;;;;;;;0.00;0.00;;;7.20;99.90;;;;;;5035764;28;20040;-72
2024/01/06 12:04:15;;;;;;;0.00;0.00;;;7.30;99.90;;;;;;5053672;28;20029;-73
2024/01/06 12:06:41;;;;;;;0.03;0.03;;;7.10;99.90;;;;;;5053772;28;20048;-73
2024/01/06 12:09:09;;;;;;;0.45;0.38;;;7.10;99.90;;;;;;5053298;28;20582;-72
2024/01/06 12:11:36;;;;;;;0.00;0.00;;;6.90;99.90;;;;;;5053751;28;20024;-73
2024/01/06 12:14:02;;;;;;;0.00;0.00;;;7.00;99.90;;;;;;5053527;28;20021;-73
2024/01/06 12:16:28;;;;;;;0.10;0.10;;;7.00;99.90;;;;;;5053394;28;20432;-72
2024/01/06 12:18:55;;;;;;;0.35;0.30;;;7.00;99.90;;;;;;5053476;28;20063;-72
2024/01/06 12:21:24;;;;;;;0.03;0.03;;;6.80;99.90;;;;;;5035672;28;20086;-72
2024/01/06 12:23:50;;;;;;;1.92;1.45;;;6.90;99.90;;;;;;5035029;28;20032;-73
2024/01/06 12:26:20;;;;;;;0.10;0.10;;;7.00;99.90;;;;;;5053171;28;20021;-73
2024/01/06 12:28:46;;;;;;;0.32;0.32;;;6.90;99.90;;;;;;5053323;28;20141;-72
2024/01/06 12:31:12;;;;;;;0.00;0.00;;;6.70;99.90;;;;;;5053185;28;20039;-72
2024/01/06 12:33:42;;;;;;;1.65;0.52;;;6.90;99.90;;;;;;5053166;28;20521;-72
2024/01/06 12:36:13;;;;;;;0.75;0.68;;;6.90;99.90;;;;;;5052967;28;20028;-72
2024/01/06 12:38:42;;;;;;;0.00;0.00;;;6.90;99.90;;;;;;5052715;28;20029;-72
2024/01/06 12:41:08;;;;;;;0.08;0.08;;;6.90;99.90;;;;;;5053026;28;20095;-72
2024/01/06 12:43:33;;;;;;;0.10;0.10;;;6.90;99.90;;;;;;5053001;28;20457;-72
2024/01/06 12:45:59;;;;;;;0.03;0.03;;;6.70;99.90;;;;;;5051583;28;20029;-73
2024/01/06 12:48:25;;;;;;;0.20;0.20;;;6.80;99.90;;;;;;5052870;28;20029;-72
2024/01/06 12:50:51;;;;;;;0.10;0.10;;;6.70;99.90;;;;;;5018710;28;20115;-72
2024/01/06 12:53:17;;;;;;;0.05;0.05;;;6.70;99.90;;;;;;5052357;28;20454;-73
2024/01/06 12:55:46;;;;;;;2.70;0.73;;;6.80;99.90;;;;;;5052907;28;20066;-72